Terminal Aerodrome Forecast
Issued by NWS Wakefield, VA

Home | Current Version | Previous Version | Text Only | Print | Product List | Glossary On
Versions: 1 2 3 4 5 6 7 8 9 10 11 12 13 14 15 16
862
FTUS41 KAKQ 011738
TAFRIC
TAF
KRIC 011738Z 0118/0218 23023G37KT P6SM SCT040
     FM012100 24019G30KT P6SM VCTS BKN050CB
     FM020000 22014G23KT 6SM -SHRA OVC080
      TEMPO 0200/0203 4SM TSRA OVC040CB
     FM020500 26012G20KT P6SM VCSH BKN045
     FM020600 27012G19KT P6SM BKN060
     FM020800 28012G19KT P6SM SCT090=

USA.gov is the U.S. government's official web portal to all federal, state and local government web resources and services.